Aviation Digital Data Service (ADDS)

Output produced by METARs form (0042 UTC 20 April 2019)
found at http://www.aviationweather.gov/metar/data/
 
METAR text: KHRL 192352Z 08011KT 10SM CLR 25/11 A3002 RMK AO2 SLP166 T02500106 10294 20250 55006
Conditions at: KHRL (HARLINGEN , TX, US) observed 2352 UTC 19 April 2019
Temperature: 25.0°C (77°F)
Dewpoint: 10.6°C (51°F) [RH = 40%]
Pressure (altimeter): 30.02 inches Hg (1016.7 mb)
[Sea-level pressure: 1016.6 mb]
Winds: from the E (80 degrees) at 13 MPH (11 knots; 5.7 m/s)
Visibility: 10 or more miles (16+ km)
Ceiling: at least 12,000 feet AGL
Clouds: sky clear below 12,000 feet AGL
Weather: no significant weather observed at this time

METAR text: KHRL 192252Z 08013KT 10SM CLR 27/12 A3002 RMK AO2 SLP166 T02670117
Conditions at: KHRL (HARLINGEN , TX, US) observed 2252 UTC 19 April 2019
Temperature: 26.7°C (80°F)
Dewpoint: 11.7°C (53°F) [RH = 39%]
Pressure (altimeter): 30.02 inches Hg (1016.7 mb)
[Sea-level pressure: 1016.6 mb]
Winds: from the E (80 degrees) at 15 MPH (13 knots; 6.7 m/s)
Visibility: 10 or more miles (16+ km)
Ceiling: at least 12,000 feet AGL
Clouds: sky clear below 12,000 feet AGL
Weather: no significant weather observed at this time

METAR text: KHRL 192152Z 09009KT 10SM CLR 28/11 A3003 RMK AO2 SLP167 T02780106
Conditions at: KHRL (HARLINGEN , TX, US) observed 2152 UTC 19 April 2019
Temperature: 27.8°C (82°F)
Dewpoint: 10.6°C (51°F) [RH = 34%]
Pressure (altimeter): 30.03 inches Hg (1017.0 mb)
[Sea-level pressure: 1016.7 mb]
Winds: from the E (90 degrees) at 10 MPH (9 knots; 4.6 m/s)
Visibility: 10 or more miles (16+ km)
Ceiling: at least 12,000 feet AGL
Clouds: sky clear below 12,000 feet AGL
Weather: no significant weather observed at this time

METAR text: KHRL 192052Z 09008KT 10SM CLR 28/09 A3004 RMK AO2 SLP172 T02830094 58020
Conditions at: KHRL (HARLINGEN , TX, US) observed 2052 UTC 19 April 2019
Temperature: 28.3°C (83°F)
Dewpoint: 9.4°C (49°F) [RH = 31%]
Pressure (altimeter): 30.04 inches Hg (1017.4 mb)
[Sea-level pressure: 1017.2 mb]
Winds: from the E (90 degrees) at 9 MPH (8 knots; 4.1 m/s)
Visibility: 10 or more miles (16+ km)
Ceiling: at least 12,000 feet AGL
Clouds: sky clear below 12,000 feet AGL
Weather: no significant weather observed at this time

METAR text: KHRL 191952Z 33008KT 10SM CLR 29/07 A3006 RMK AO2 SLP180 T02940067
Conditions at: KHRL (HARLINGEN , TX, US) observed 1952 UTC 19 April 2019
Temperature: 29.4°C (85°F)
Dewpoint: 6.7°C (44°F) [RH = 24%]
Pressure (altimeter): 30.06 inches Hg (1018.0 mb)
[Sea-level pressure: 1018.0 mb]
Winds: from the NNW (330 degrees) at 9 MPH (8 knots; 4.1 m/s)
Visibility: 10 or more miles (16+ km)
Ceiling: at least 12,000 feet AGL
Clouds: sky clear below 12,000 feet AGL
Weather: no significant weather observed at this time

METAR text: KHRL 191852Z 36011KT 10SM CLR 29/07 A3008 RMK AO2 SLP186 T02890072
Conditions at: KHRL (HARLINGEN , TX, US) observed 1852 UTC 19 April 2019
Temperature: 28.9°C (84°F)
Dewpoint: 7.2°C (45°F) [RH = 26%]
Pressure (altimeter): 30.08 inches Hg (1018.7 mb)
[Sea-level pressure: 1018.6 mb]
Winds: from the N (360 degrees) at 13 MPH (11 knots; 5.7 m/s)
Visibility: 10 or more miles (16+ km)
Ceiling: at least 12,000 feet AGL
Clouds: sky clear below 12,000 feet AGL
Weather: no significant weather observed at this time

METAR text: KHRL 191752Z 35010KT 10SM CLR 28/07 A3010 RMK AO2 SLP193 T02830072 10283 20133 58003
Conditions at: KHRL (HARLINGEN , TX, US) observed 1752 UTC 19 April 2019
Temperature: 28.3°C (83°F)
Dewpoint: 7.2°C (45°F) [RH = 26%]
Pressure (altimeter): 30.10 inches Hg (1019.4 mb)
[Sea-level pressure: 1019.3 mb]
Winds: from the N (350 degrees) at 12 MPH (10 knots; 5.1 m/s)
Visibility: 10 or more miles (16+ km)
Ceiling: at least 12,000 feet AGL
Clouds: sky clear below 12,000 feet AGL
Weather: no significant weather observed at this time

METAR text: KHRL 191652Z 04010G18KT 10SM CLR 27/07 A3012 RMK AO2 SLP198 T02720067
Conditions at: KHRL (HARLINGEN , TX, US) observed 1652 UTC 19 April 2019
Temperature: 27.2°C (81°F)
Dewpoint: 6.7°C (44°F) [RH = 27%]
Pressure (altimeter): 30.12 inches Hg (1020.1 mb)
[Sea-level pressure: 1019.8 mb]
Winds: from the NE (40 degrees) at 12 MPH (10 knots; 5.1 m/s)
gusting to 21 MPH (18 knots; 9.3 m/s)
Visibility: 10 or more miles (16+ km)
Ceiling: at least 12,000 feet AGL
Clouds: sky clear below 12,000 feet AGL
Weather: no significant weather observed at this time

METAR text: KHRL 191552Z 01011KT 10SM CLR 26/07 A3012 RMK AO2 SLP198 T02610072
Conditions at: KHRL (HARLINGEN , TX, US) observed 1552 UTC 19 April 2019
Temperature: 26.1°C (79°F)
Dewpoint: 7.2°C (45°F) [RH = 30%]
Pressure (altimeter): 30.12 inches Hg (1020.1 mb)
[Sea-level pressure: 1019.8 mb]
Winds: from the N (10 degrees) at 13 MPH (11 knots; 5.7 m/s)
Visibility: 10 or more miles (16+ km)
Ceiling: at least 12,000 feet AGL
Clouds: sky clear below 12,000 feet AGL
Weather: no significant weather observed at this time

METAR text: KHRL 191452Z 35013KT 10SM CLR 23/09 A3011 RMK AO2 SLP196 T02280089 51026
Conditions at: KHRL (HARLINGEN , TX, US) observed 1452 UTC 19 April 2019
Temperature: 22.8°C (73°F)
Dewpoint: 8.9°C (48°F) [RH = 41%]
Pressure (altimeter): 30.11 inches Hg (1019.7 mb)
[Sea-level pressure: 1019.6 mb]
Winds: from the N (350 degrees) at 15 MPH (13 knots; 6.7 m/s)
Visibility: 10 or more miles (16+ km)
Ceiling: at least 12,000 feet AGL
Clouds: sky clear below 12,000 feet AGL
Weather: no significant weather observed at this time

METAR text: KHRL 191432Z 35015G22KT 10SM CLR 22/11 A3011 RMK AO2 T02220106
Conditions at: KHRL (HARLINGEN , TX, US) observed 1432 UTC 19 April 2019
Temperature: 22.2°C (72°F)
Dewpoint: 10.6°C (51°F) [RH = 48%]
Pressure (altimeter): 30.11 inches Hg (1019.7 mb)
Winds: from the N (350 degrees) at 17 MPH (15 knots; 7.7 m/s)
gusting to 25 MPH (22 knots; 11.3 m/s)
Visibility: 10 or more miles (16+ km)
Ceiling: at least 12,000 feet AGL
Clouds: sky clear below 12,000 feet AGL
Weather: no significant weather observed at this time

METAR text: KHRL 191352Z 29009KT 10SM CLR 19/11 A3009 RMK AO2 SLP188 T01940106
Conditions at: KHRL (HARLINGEN , TX, US) observed 1352 UTC 19 April 2019
Temperature: 19.4°C (67°F)
Dewpoint: 10.6°C (51°F) [RH = 57%]
Pressure (altimeter): 30.09 inches Hg (1019.0 mb)
[Sea-level pressure: 1018.8 mb]
Winds: from the WNW (290 degrees) at 10 MPH (9 knots; 4.6 m/s)
Visibility: 10 or more miles (16+ km)
Ceiling: at least 12,000 feet AGL
Clouds: sky clear below 12,000 feet AGL
Weather: no significant weather observed at this time

METAR text: KHRL 191252Z 30006KT 10SM CLR 14/10 A3007 RMK AO2 SLP182 T01440100
Conditions at: KHRL (HARLINGEN , TX, US) observed 1252 UTC 19 April 2019
Temperature: 14.4°C (58°F)
Dewpoint: 10.0°C (50°F) [RH = 75%]
Pressure (altimeter): 30.07 inches Hg (1018.4 mb)
[Sea-level pressure: 1018.2 mb]
Winds: from the WNW (300 degrees) at 7 MPH (6 knots; 3.1 m/s)
Visibility: 10 or more miles (16+ km)
Ceiling: at least 12,000 feet AGL
Clouds: sky clear below 12,000 feet AGL
Weather: no significant weather observed at this time

METAR text: KHRL 191152Z 27008KT 10SM CLR 14/09 A3003 RMK AO2 SLP170 T01390094 10194 20111 53013
Conditions at: KHRL (HARLINGEN , TX, US) observed 1152 UTC 19 April 2019
Temperature: 13.9°C (57°F)
Dewpoint: 9.4°C (49°F) [RH = 74%]
Pressure (altimeter): 30.03 inches Hg (1017.0 mb)
[Sea-level pressure: 1017.0 mb]
Winds: from the W (270 degrees) at 9 MPH (8 knots; 4.1 m/s)
Visibility: 10 or more miles (16+ km)
Ceiling: at least 12,000 feet AGL
Clouds: sky clear below 12,000 feet AGL
Weather: no significant weather observed at this time

METAR text: KHRL 191052Z 26003KT 10SM CLR 13/09 A3000 RMK AO2 SLP157 T01330094
Conditions at: KHRL (HARLINGEN , TX, US) observed 1052 UTC 19 April 2019
Temperature: 13.3°C (56°F)
Dewpoint: 9.4°C (49°F) [RH = 77%]
Pressure (altimeter): 30.00 inches Hg (1016.0 mb)
[Sea-level pressure: 1015.7 mb]
Winds: from the W (260 degrees) at 3 MPH (3 knots; 1.5 m/s)
Visibility: 10 or more miles (16+ km)
Ceiling: at least 12,000 feet AGL
Clouds: sky clear below 12,000 feet AGL
Weather: no significant weather observed at this time

METAR text: KHRL 190952Z AUTO 25008KT 10SM CLR 15/09 A3000 RMK AO2 SLP157 T01500089
Conditions at: KHRL (HARLINGEN , TX, US) observed 0952 UTC 19 April 2019
Temperature: 15.0°C (59°F)
Dewpoint: 8.9°C (48°F) [RH = 67%]
Pressure (altimeter): 30.00 inches Hg (1016.0 mb)
[Sea-level pressure: 1015.7 mb]
Winds: from the WSW (250 degrees) at 9 MPH (8 knots; 4.1 m/s)
Visibility: 10 or more miles (16+ km)
Ceiling: at least 12,000 feet AGL
Clouds: sky clear below 12,000 feet AGL
Weather: automated observation with no human augmentation;
there may or may not be significant weather present at this time

METAR text: KHRL 190852Z AUTO 28006KT 10SM CLR 16/09 A3000 RMK AO2 SLP157 T01560094 56006
Conditions at: KHRL (HARLINGEN , TX, US) observed 0852 UTC 19 April 2019
Temperature: 15.6°C (60°F)
Dewpoint: 9.4°C (49°F) [RH = 67%]
Pressure (altimeter): 30.00 inches Hg (1016.0 mb)
[Sea-level pressure: 1015.7 mb]
Winds: from the W (280 degrees) at 7 MPH (6 knots; 3.1 m/s)
Visibility: 10 or more miles (16+ km)
Ceiling: at least 12,000 feet AGL
Clouds: sky clear below 12,000 feet AGL
Weather: automated observation with no human augmentation;
there may or may not be significant weather present at this time

METAR text: KHRL 190752Z AUTO 31003KT 10SM CLR 17/09 A3000 RMK AO2 SLP158 T01670094
Conditions at: KHRL (HARLINGEN , TX, US) observed 0752 UTC 19 April 2019
Temperature: 16.7°C (62°F)
Dewpoint: 9.4°C (49°F) [RH = 62%]
Pressure (altimeter): 30.00 inches Hg (1016.0 mb)
[Sea-level pressure: 1015.8 mb]
Winds: from the NW (310 degrees) at 3 MPH (3 knots; 1.5 m/s)
Visibility: 10 or more miles (16+ km)
Ceiling: at least 12,000 feet AGL
Clouds: sky clear below 12,000 feet AGL
Weather: automated observation with no human augmentation;
there may or may not be significant weather present at this time

METAR text: KHRL 190652Z AUTO 01003KT 10SM CLR 19/10 A3001 RMK AO2 SLP163 T01890100
Conditions at: KHRL (HARLINGEN , TX, US) observed 0652 UTC 19 April 2019
Temperature: 18.9°C (66°F)
Dewpoint: 10.0°C (50°F) [RH = 56%]
Pressure (altimeter): 30.01 inches Hg (1016.3 mb)
[Sea-level pressure: 1016.3 mb]
Winds: from the N (10 degrees) at 3 MPH (3 knots; 1.5 m/s)
Visibility: 10 or more miles (16+ km)
Ceiling: at least 12,000 feet AGL
Clouds: sky clear below 12,000 feet AGL
Weather: automated observation with no human augmentation;
there may or may not be significant weather present at this time

METAR text: KHRL 190552Z AUTO 36006KT 10SM CLR 18/11 A3002 RMK AO2 SLP164 T01780111 10278 20178 403220178 51021
Conditions at: KHRL (HARLINGEN , TX, US) observed 0552 UTC 19 April 2019
Temperature: 17.8°C (64°F)
Dewpoint: 11.1°C (52°F) [RH = 65%]
Pressure (altimeter): 30.02 inches Hg (1016.7 mb)
[Sea-level pressure: 1016.4 mb]
Winds: from the N (360 degrees) at 7 MPH (6 knots; 3.1 m/s)
Visibility: 10 or more miles (16+ km)
Ceiling: at least 12,000 feet AGL
Clouds: sky clear below 12,000 feet AGL
Weather: automated observation with no human augmentation;
there may or may not be significant weather present at this time

METAR text: KHRL 190452Z AUTO 01011KT 10SM CLR 19/11 A3000 RMK AO2 SLP159 T01940111
Conditions at: KHRL (HARLINGEN , TX, US) observed 0452 UTC 19 April 2019
Temperature: 19.4°C (67°F)
Dewpoint: 11.1°C (52°F) [RH = 59%]
Pressure (altimeter): 30.00 inches Hg (1016.0 mb)
[Sea-level pressure: 1015.9 mb]
Winds: from the N (10 degrees) at 13 MPH (11 knots; 5.7 m/s)
Visibility: 10 or more miles (16+ km)
Ceiling: at least 12,000 feet AGL
Clouds: sky clear below 12,000 feet AGL
Weather: automated observation with no human augmentation;
there may or may not be significant weather present at this time

METAR text: KHRL 190352Z 01009KT 10SM CLR 20/12 A2999 RMK AO2 SLP153 T02000122
Conditions at: KHRL (HARLINGEN , TX, US) observed 0352 UTC 19 April 2019
Temperature: 20.0°C (68°F)
Dewpoint: 12.2°C (54°F) [RH = 61%]
Pressure (altimeter): 29.99 inches Hg (1015.7 mb)
[Sea-level pressure: 1015.3 mb]
Winds: from the N (10 degrees) at 10 MPH (9 knots; 4.6 m/s)
Visibility: 10 or more miles (16+ km)
Ceiling: at least 12,000 feet AGL
Clouds: sky clear below 12,000 feet AGL
Weather: no significant weather observed at this time

METAR text: KHRL 190252Z 01013KT 10SM CLR 23/12 A2996 RMK AO2 SLP143 T02280122 53040
Conditions at: KHRL (HARLINGEN , TX, US) observed 0252 UTC 19 April 2019
Temperature: 22.8°C (73°F)
Dewpoint: 12.2°C (54°F) [RH = 51%]
Pressure (altimeter): 29.96 inches Hg (1014.6 mb)
[Sea-level pressure: 1014.3 mb]
Winds: from the N (10 degrees) at 15 MPH (13 knots; 6.7 m/s)
Visibility: 10 or more miles (16+ km)
Ceiling: at least 12,000 feet AGL
Clouds: sky clear below 12,000 feet AGL
Weather: no significant weather observed at this time

METAR text: KHRL 190152Z 01009KT 10SM CLR 23/13 A2991 RMK AO2 PRESRR SLP128 T02330128
Conditions at: KHRL (HARLINGEN , TX, US) observed 0152 UTC 19 April 2019
Temperature: 23.3°C (74°F)
Dewpoint: 12.8°C (55°F) [RH = 52%]
Pressure (altimeter): 29.91 inches Hg (1013.0 mb)
[Sea-level pressure: 1012.8 mb]
Winds: from the N (10 degrees) at 10 MPH (9 knots; 4.6 m/s)
Visibility: 10 or more miles (16+ km)
Ceiling: at least 12,000 feet AGL
Clouds: sky clear below 12,000 feet AGL
Weather: no significant weather observed at this time

METAR text: KHRL 190052Z 36016KT 10SM CLR 26/12 A2986 RMK AO2 PK WND 35031/0022 SLP112 T02560117
Conditions at: KHRL (HARLINGEN , TX, US) observed 0052 UTC 19 April 2019
Temperature: 25.6°C (78°F)
Dewpoint: 11.7°C (53°F) [RH = 42%]
Pressure (altimeter): 29.86 inches Hg (1011.3 mb)
[Sea-level pressure: 1011.2 mb]
Winds: from the N (360 degrees) at 18 MPH (16 knots; 8.2 m/s)
Visibility: 10 or more miles (16+ km)
Ceiling: at least 12,000 feet AGL
Clouds: sky clear below 12,000 feet AGL
Weather: no significant weather observed at this time

METAR text: KHRL 182352Z 34020G31KT 10SM CLR 28/10 A2984 RMK AO2 PK WND 35035/2304 SLP103 T02830100 10322 20283 53025
Conditions at: KHRL (HARLINGEN , TX, US) observed 2352 UTC 18 April 2019
Temperature: 28.3°C (83°F)
Dewpoint: 10.0°C (50°F) [RH = 32%]
Pressure (altimeter): 29.84 inches Hg (1010.6 mb)
[Sea-level pressure: 1010.3 mb]
Winds: from the NNW (340 degrees) at 23 MPH (20 knots; 10.3 m/s)
gusting to 36 MPH (31 knots; 15.9 m/s)
Visibility: 10 or more miles (16+ km)
Ceiling: at least 12,000 feet AGL
Clouds: sky clear below 12,000 feet AGL
Weather: no significant weather observed at this time

METAR text: KHRL 182252Z 33024G33KT 10SM CLR 30/10 A2981 RMK AO2 PK WND 33037/2207 SLP094 T03000100
Conditions at: KHRL (HARLINGEN , TX, US) observed 2252 UTC 18 April 2019
Temperature: 30.0°C (86°F)
Dewpoint: 10.0°C (50°F) [RH = 29%]
Pressure (altimeter): 29.81 inches Hg (1009.6 mb)
[Sea-level pressure: 1009.4 mb]
Winds: from the NNW (330 degrees) at 28 MPH (24 knots; 12.3 m/s)
gusting to 38 MPH (33 knots; 17.0 m/s)
Visibility: 10 or more miles (16+ km)
Ceiling: at least 12,000 feet AGL
Clouds: sky clear below 12,000 feet AGL
Weather: no significant weather observed at this time

METAR text: KHRL 182152Z 33026G38KT 10SM CLR 32/11 A2977 RMK AO2 PK WND 33038/2151 SLP080 T03170111
Conditions at: KHRL (HARLINGEN , TX, US) observed 2152 UTC 18 April 2019
Temperature: 31.7°C (89°F)
Dewpoint: 11.1°C (52°F) [RH = 28%]
Pressure (altimeter): 29.77 inches Hg (1008.2 mb)
[Sea-level pressure: 1008.0 mb]
Winds: from the NNW (330 degrees) at 30 MPH (26 knots; 13.4 m/s)
gusting to 44 MPH (38 knots; 19.5 m/s)
Visibility: 10 or more miles (16+ km)
Ceiling: at least 12,000 feet AGL
Clouds: sky clear below 12,000 feet AGL
Weather: no significant weather observed at this time

METAR text: KHRL 182052Z 32020G33KT 10SM CLR 32/11 A2976 RMK AO2 PK WND 32034/2037 SLP078 T03220106 58015
Conditions at: KHRL (HARLINGEN , TX, US) observed 2052 UTC 18 April 2019
Temperature: 32.2°C (90°F)
Dewpoint: 10.6°C (51°F) [RH = 27%]
Pressure (altimeter): 29.76 inches Hg (1007.9 mb)
[Sea-level pressure: 1007.8 mb]
Winds: from the NW (320 degrees) at 23 MPH (20 knots; 10.3 m/s)
gusting to 38 MPH (33 knots; 17.0 m/s)
Visibility: 10 or more miles (16+ km)
Ceiling: at least 12,000 feet AGL
Clouds: sky clear below 12,000 feet AGL
Weather: no significant weather observed at this time

METAR text: KHRL 181952Z 31019G30KT 10SM CLR 31/12 A2979 RMK AO2 PK WND 32033/1858 SLP088 T03110122
Conditions at: KHRL (HARLINGEN , TX, US) observed 1952 UTC 18 April 2019
Temperature: 31.1°C (88°F)
Dewpoint: 12.2°C (54°F) [RH = 31%]
Pressure (altimeter): 29.79 inches Hg (1008.9 mb)
[Sea-level pressure: 1008.8 mb]
Winds: from the NW (310 degrees) at 22 MPH (19 knots; 9.8 m/s)
gusting to 34 MPH (30 knots; 15.4 m/s)
Visibility: 10 or more miles (16+ km)
Ceiling: at least 12,000 feet AGL
Clouds: sky clear below 12,000 feet AGL
Weather: no significant weather observed at this time

METAR text: KHRL 181852Z 32018G27KT 10SM CLR 29/13 A2980 RMK AO2 PK WND 32030/1827 SLP092 T02940128
Conditions at: KHRL (HARLINGEN , TX, US) observed 1852 UTC 18 April 2019
Temperature: 29.4°C (85°F)
Dewpoint: 12.8°C (55°F) [RH = 36%]
Pressure (altimeter): 29.80 inches Hg (1009.2 mb)
[Sea-level pressure: 1009.2 mb]
Winds: from the NW (320 degrees) at 21 MPH (18 knots; 9.3 m/s)
gusting to 31 MPH (27 knots; 13.9 m/s)
Visibility: 10 or more miles (16+ km)
Ceiling: at least 12,000 feet AGL
Clouds: sky clear below 12,000 feet AGL
Weather: no significant weather observed at this time

METAR text: KHRL 181752Z 31019G26KT 10SM CLR 28/14 A2981 RMK AO2 PK WND 32026/1745 SLP093 T02830139 10283 20183 58001
Conditions at: KHRL (HARLINGEN , TX, US) observed 1752 UTC 18 April 2019
Temperature: 28.3°C (83°F)
Dewpoint: 13.9°C (57°F) [RH = 41%]
Pressure (altimeter): 29.81 inches Hg (1009.6 mb)
[Sea-level pressure: 1009.3 mb]
Winds: from the NW (310 degrees) at 22 MPH (19 knots; 9.8 m/s)
gusting to 30 MPH (26 knots; 13.4 m/s)
Visibility: 10 or more miles (16+ km)
Ceiling: at least 12,000 feet AGL
Clouds: sky clear below 12,000 feet AGL
Weather: no significant weather observed at this time

METAR text: KHRL 181652Z 33015G23KT 10SM CLR 26/16 A2982 RMK AO2 SLP097 T02560156
Conditions at: KHRL (HARLINGEN , TX, US) observed 1652 UTC 18 April 2019
Temperature: 25.6°C (78°F)
Dewpoint: 15.6°C (60°F) [RH = 54%]
Pressure (altimeter): 29.82 inches Hg (1009.9 mb)
[Sea-level pressure: 1009.7 mb]
Winds: from the NNW (330 degrees) at 17 MPH (15 knots; 7.7 m/s)
gusting to 26 MPH (23 knots; 11.8 m/s)
Visibility: 10 or more miles (16+ km)
Ceiling: at least 12,000 feet AGL
Clouds: sky clear below 12,000 feet AGL
Weather: no significant weather observed at this time

METAR text: KHRL 181552Z 31011KT 10SM CLR 23/17 A2982 RMK AO2 SLP097 T02330172
Conditions at: KHRL (HARLINGEN , TX, US) observed 1552 UTC 18 April 2019
Temperature: 23.3°C (74°F)
Dewpoint: 17.2°C (63°F) [RH = 69%]
Pressure (altimeter): 29.82 inches Hg (1009.9 mb)
[Sea-level pressure: 1009.7 mb]
Winds: from the NW (310 degrees) at 13 MPH (11 knots; 5.7 m/s)
Visibility: 10 or more miles (16+ km)
Ceiling: at least 12,000 feet AGL
Clouds: sky clear below 12,000 feet AGL
Weather: no significant weather observed at this time

METAR text: KHRL 181452Z 32013KT 10SM CLR 21/17 A2981 RMK AO2 SLP095 T02060172 53029
Conditions at: KHRL (HARLINGEN , TX, US) observed 1452 UTC 18 April 2019
Temperature: 20.6°C (69°F)
Dewpoint: 17.2°C (63°F) [RH = 81%]
Pressure (altimeter): 29.81 inches Hg (1009.6 mb)
[Sea-level pressure: 1009.5 mb]
Winds: from the NW (320 degrees) at 15 MPH (13 knots; 6.7 m/s)
Visibility: 10 or more miles (16+ km)
Ceiling: at least 12,000 feet AGL
Clouds: sky clear below 12,000 feet AGL
Weather: no significant weather observed at this time

METAR text: KHRL 181352Z 32013KT 10SM CLR 20/17 A2978 RMK AO2 SLP085 T02000172
Conditions at: KHRL (HARLINGEN , TX, US) observed 1352 UTC 18 April 2019
Temperature: 20.0°C (68°F)
Dewpoint: 17.2°C (63°F) [RH = 84%]
Pressure (altimeter): 29.78 inches Hg (1008.5 mb)
[Sea-level pressure: 1008.5 mb]
Winds: from the NW (320 degrees) at 15 MPH (13 knots; 6.7 m/s)
Visibility: 10 or more miles (16+ km)
Ceiling: at least 12,000 feet AGL
Clouds: sky clear below 12,000 feet AGL
Weather: no significant weather observed at this time

METAR text: KHRL 181252Z 34010KT 10SM BKN070 19/17 A2975 RMK AO2 SLP073 T01890167
Conditions at: KHRL (HARLINGEN , TX, US) observed 1252 UTC 18 April 2019
Temperature: 18.9°C (66°F)
Dewpoint: 16.7°C (62°F) [RH = 87%]
Pressure (altimeter): 29.75 inches Hg (1007.5 mb)
[Sea-level pressure: 1007.3 mb]
Winds: from the NNW (340 degrees) at 12 MPH (10 knots; 5.1 m/s)
Visibility: 10 or more miles (16+ km)
Ceiling: 7000 feet AGL
Clouds: broken clouds at 7000 feet AGL
Weather: no significant weather observed at this time

Forecast for: KHRL (HARLINGEN , TX, US)
Text: KHRL 192320Z 2000/2024 08013KT P6SM SKC
Forecast period: 0000 to 1500 UTC 20 April 2019
Forecast type: FROM: standard forecast or significant change
Winds: from the E (80 degrees) at 15 MPH (13 knots; 6.7 m/s)
Visibility: 6 or more miles 10+ km)
Clouds: clear skies
Weather: no significant weather forecast for this period
Text: FM201500 15010KT P6SM SKC
Forecast period: 1500 to 1700 UTC 20 April 2019
Forecast type: FROM: standard forecast or significant change
Winds: from the SSE (150 degrees) at 12 MPH (10 knots; 5.1 m/s)
Visibility: 6 or more miles 10+ km)
Clouds: clear skies
Weather: no significant weather forecast for this period
Text: FM201700 16013G19KT P6SM SKC
Forecast period: 1700 UTC 20 April 2019 to 0000 UTC 21 April 2019
Forecast type: FROM: standard forecast or significant change
Winds: from the SSE (160 degrees) at 15 MPH (13 knots; 6.7 m/s)
gusting to 22 MPH (19 knots; 9.8 m/s)
Visibility: 6 or more miles 10+ km)
Clouds: clear skies
Weather: no significant weather forecast for this period